TimePST,TemperatureF,Dew PointF,Humidity,Sea Level PressureIn,VisibilityMPH,Wind Direction,Wind SpeedMPH,Gust SpeedMPH,PrecipitationIn,Events,Conditions,WindDirDegrees,DateUTC
12:56 AM,36.0,28.0,73,30.22,10.0,Calm,Calm,-,N/A,,Clear,0,2013-01-13 08:56:00
1:56 AM,34.0,27.0,75,30.24,10.0,Calm,Calm,-,N/A,,Clear,0,2013-01-13 09:56:00
2:56 AM,34.0,28.0,79,30.24,10.0,West,4.6,-,N/A,,Clear,260,2013-01-13 10:56:00
3:56 AM,34.0,27.0,75,30.24,10.0,WNW,3.5,-,N/A,,Clear,290,2013-01-13 11:56:00
4:56 AM,35.1,26.1,70,30.24,10.0,Calm,Calm,-,N/A,,Clear,0,2013-01-13 12:56:00
5:56 AM,37.0,26.1,65,30.26,10.0,NNW,4.6,-,N/A,,Clear,330,2013-01-13 13:56:00
6:56 AM,33.1,25.0,72,30.27,10.0,Calm,Calm,-,N/A,,Clear,0,2013-01-13 14:56:00
7:56 AM,33.1,26.1,75,30.28,10.0,Calm,Calm,-,N/A,,Clear,0,2013-01-13 15:56:00
8:56 AM,37.9,30.0,73,30.30,10.0,Calm,Calm,-,N/A,,Clear,0,2013-01-13 16:56:00
9:56 AM,39.0,28.9,67,30.30,10.0,Calm,Calm,-,N/A,,Clear,0,2013-01-13 17:56:00
10:56 AM,43.0,24.1,47,30.28,10.0,Calm,Calm,-,N/A,,Clear,0,2013-01-13 18:56:00
11:56 AM,45.0,19.9,37,30.26,10.0,North,3.5,-,N/A,,Clear,360,2013-01-13 19:56:00
12:56 PM,46.9,21.0,36,30.24,10.0,NW,5.8,-,N/A,,Clear,320,2013-01-13 20:56:00
1:56 PM,48.0,18.0,30,30.22,10.0,Variable,4.6,-,N/A,,Clear,0,2013-01-13 21:56:00
2:56 PM,48.9,18.0,29,30.21,10.0,NNW,5.8,-,N/A,,Clear,330,2013-01-13 22:56:00
3:56 PM,48.9,18.0,29,30.20,10.0,WNW,5.8,-,N/A,,Clear,300,2013-01-13 23:56:00
4:56 PM,46.9,26.1,44,30.20,10.0,NW,6.9,-,N/A,,Clear,320,2013-01-14 00:56:00
5:56 PM,46.0,28.9,51,30.20,10.0,Calm,Calm,-,0.00,,Clear,0,2013-01-14 01:56:00
6:56 PM,42.1,25.0,51,30.21,10.0,NNE,8.1,-,N/A,,Clear,20,2013-01-14 02:56:00
7:56 PM,43.0,24.1,47,30.22,10.0,WNW,4.6,-,N/A,,Clear,300,2013-01-14 03:56:00
8:56 PM,39.9,27.0,60,30.22,10.0,Calm,Calm,-,N/A,,Clear,0,2013-01-14 04:56:00
9:56 PM,37.9,28.0,68,30.22,10.0,Calm,Calm,-,N/A,,Clear,0,2013-01-14 05:56:00
10:56 PM,41.0,25.0,53,30.23,10.0,Calm,Calm,-,N/A,,Clear,0,2013-01-14 06:56:00
11:56 PM,42.1,19.9,41,30.25,10.0,WNW,4.6,-,N/A,,Clear,300,2013-01-14 07:56:00